createdAt,value
2018-03-02T00:02:04.094Z,-7.70
2018-03-02T00:04:31.607Z,-7.70
2018-03-02T00:06:59.099Z,-7.80
2018-03-02T00:09:26.599Z,-7.80
2018-03-02T00:11:54.115Z,-7.80
2018-03-02T00:14:21.606Z,-7.80
2018-03-02T00:16:49.092Z,-7.80
2018-03-02T00:19:16.980Z,-7.90
2018-03-02T00:21:44.468Z,-7.90
2018-03-02T00:24:11.983Z,-7.90
2018-03-02T00:26:39.495Z,-7.80
2018-03-02T00:29:07.073Z,-7.90
2018-03-02T00:31:34.980Z,-7.90
2018-03-02T00:34:02.478Z,-7.90
2018-03-02T00:36:29.989Z,-8.00
2018-03-02T00:38:57.599Z,-8.00
2018-03-02T00:41:25.130Z,-8.00
2018-03-02T00:43:52.695Z,-8.00
2018-03-02T00:46:20.180Z,-8.00
2018-03-02T00:48:47.672Z,-8.00
2018-03-02T00:51:15.447Z,-8.00
2018-03-02T00:53:42.939Z,-8.00
2018-03-02T00:56:10.428Z,-8.00
2018-03-02T00:58:38.327Z,-8.00
2018-03-02T01:01:05.816Z,-8.00
2018-03-02T01:03:33.307Z,-8.00
2018-03-02T01:06:01.207Z,-8.10
2018-03-02T01:08:28.704Z,-8.10
2018-03-02T01:10:56.204Z,-8.10
2018-03-02T01:13:23.755Z,-8.20
2018-03-02T01:15:51.255Z,-8.20
2018-03-02T01:18:18.751Z,-8.20
2018-03-02T01:20:46.260Z,-8.20
2018-03-02T01:23:13.766Z,-8.20
2018-03-02T01:25:41.663Z,-8.30
2018-03-02T01:28:09.155Z,-8.30
2018-03-02T01:30:36.652Z,-8.30
2018-03-02T01:33:04.569Z,-8.30
2018-03-02T01:35:32.052Z,-8.30
2018-03-02T01:37:59.551Z,-8.40
2018-03-02T01:40:27.055Z,-8.40
2018-03-02T01:42:54.543Z,-8.40
2018-03-02T01:45:22.035Z,-8.40
2018-03-02T01:47:49.524Z,-8.40
2018-03-02T01:50:17.024Z,-8.40
2018-03-02T01:52:44.941Z,-8.50
2018-03-02T01:55:12.489Z,-8.50
2018-03-02T01:57:39.982Z,-8.60
2018-03-02T02:00:07.467Z,-8.60
2018-03-02T02:02:35.357Z,-8.60
2018-03-02T02:05:02.846Z,-8.60
2018-03-02T02:07:30.346Z,-8.60
2018-03-02T02:09:58.235Z,-8.70
2018-03-02T02:12:25.723Z,-8.70
2018-03-02T02:14:53.236Z,-8.70
2018-03-02T02:17:20.739Z,-8.70
2018-03-02T02:19:48.270Z,-8.70
2018-03-02T02:22:15.793Z,-8.70
2018-03-02T02:24:43.679Z,-8.80
2018-03-02T02:27:11.179Z,-8.80
2018-03-02T02:29:38.659Z,-8.80
2018-03-02T02:32:06.257Z,-8.80
2018-03-02T02:34:33.826Z,-8.90
2018-03-02T02:37:01.331Z,-8.80
2018-03-02T02:39:28.822Z,-8.80
2018-03-02T02:41:56.339Z,-8.80
2018-03-02T02:44:23.822Z,-8.90
2018-03-02T02:46:51.708Z,-8.90
2018-03-02T02:49:19.198Z,-8.90
2018-03-02T02:51:46.697Z,-8.90
2018-03-02T02:54:14.592Z,-9.00
2018-03-02T02:56:42.098Z,-9.00
2018-03-02T02:59:09.610Z,-9.00
2018-03-02T03:01:37.104Z,-8.90
2018-03-02T03:04:04.651Z,-9.00
2018-03-02T03:06:32.139Z,-9.00
2018-03-02T03:08:59.644Z,-9.00
2018-03-02T03:11:27.130Z,-9.10
2018-03-02T03:13:54.627Z,-9.00
2018-03-02T03:16:22.499Z,-9.10
2018-03-02T03:18:50.389Z,-9.10
2018-03-02T03:21:17.872Z,-9.10
2018-03-02T03:23:45.367Z,-9.10
2018-03-02T03:26:13.261Z,-9.10
2018-03-02T03:28:40.773Z,-9.10
2018-03-02T03:31:08.269Z,-9.10
2018-03-02T03:33:35.763Z,-9.20
2018-03-02T03:36:03.303Z,-9.20
2018-03-02T03:38:30.814Z,-9.20
2018-03-02T03:40:58.707Z,-9.20
2018-03-02T03:43:26.202Z,-9.20
2018-03-02T03:45:53.700Z,-9.30
2018-03-02T03:48:21.585Z,-9.30
2018-03-02T03:50:49.096Z,-9.30
2018-03-02T03:53:16.582Z,-9.30
2018-03-02T03:55:44.462Z,-9.30
2018-03-02T03:58:12.352Z,-9.30
2018-03-02T04:00:39.842Z,-9.30
2018-03-02T04:03:07.346Z,-9.30
2018-03-02T04:05:35.236Z,-9.40
2018-03-02T04:08:02.735Z,-9.40
2018-03-02T04:10:30.234Z,-9.40
2018-03-02T04:12:57.719Z,-9.40
2018-03-02T04:15:25.214Z,-9.40
2018-03-02T04:17:52.695Z,-9.40
2018-03-02T04:20:20.595Z,-9.50
2018-03-02T04:22:48.091Z,-9.40
2018-03-02T04:25:15.704Z,-9.50
2018-03-02T04:27:43.206Z,-9.50
2018-03-02T04:30:10.695Z,-9.50
2018-03-02T04:32:38.592Z,-9.60
2018-03-02T04:35:06.080Z,-9.60
2018-03-02T04:37:33.585Z,-9.60
2018-03-02T04:40:01.095Z,-9.60
2018-03-02T04:42:28.624Z,-9.60
2018-03-02T04:44:56.108Z,-9.60
2018-03-02T04:47:23.603Z,-9.70
2018-03-02T04:49:51.098Z,-9.70
2018-03-02T04:52:18.582Z,-9.70
2018-03-02T04:54:46.092Z,-9.70
2018-03-02T04:57:13.578Z,-9.70
2018-03-02T04:59:41.072Z,-9.80
2018-03-02T05:02:08.976Z,-9.80
2018-03-02T05:04:36.466Z,-9.80
2018-03-02T05:07:03.956Z,-9.80
2018-03-02T05:09:31.912Z,-9.80
2018-03-02T05:11:59.412Z,-9.80
2018-03-02T05:14:27.016Z,-9.80
2018-03-02T05:16:54.509Z,-9.90
2018-03-02T05:19:21.999Z,-9.90
2018-03-02T05:21:49.486Z,-9.90
2018-03-02T05:24:16.982Z,-9.90
2018-03-02T05:26:44.863Z,-10.00
2018-03-02T05:29:12.357Z,-9.90
2018-03-02T05:31:39.846Z,-10.00
2018-03-02T05:34:07.743Z,-10.00
2018-03-02T05:36:35.240Z,-10.00
2018-03-02T05:39:02.754Z,-9.90
2018-03-02T05:41:30.244Z,-10.00
2018-03-02T05:43:57.748Z,-10.00
2018-03-02T05:46:25.651Z,-10.10
2018-03-02T05:48:53.139Z,-10.10
2018-03-02T05:51:20.641Z,-10.10
2018-03-02T05:53:48.134Z,-10.10
2018-03-02T05:56:15.643Z,-10.10
2018-03-02T05:58:43.541Z,-10.10
2018-03-02T06:01:11.058Z,-10.10
2018-03-02T06:03:39.013Z,-10.10
2018-03-02T06:06:06.511Z,-10.10
2018-03-02T06:08:34.030Z,-10.10
2018-03-02T06:11:01.527Z,-10.10
2018-03-02T06:13:29.027Z,-10.20
2018-03-02T06:15:56.531Z,-10.20
2018-03-02T06:18:24.026Z,-10.20
2018-03-02T06:20:51.522Z,-10.20
2018-03-02T06:23:19.448Z,-10.10
2018-03-02T06:25:46.947Z,-10.10
2018-03-02T06:28:14.845Z,-10.10
2018-03-02T06:30:42.373Z,-10.10
2018-03-02T06:33:10.277Z,-10.20
2018-03-02T06:35:37.788Z,-10.10
2018-03-02T06:38:05.292Z,-10.10
2018-03-02T06:40:32.817Z,-10.10
2018-03-02T06:43:00.727Z,-10.00
2018-03-02T06:45:28.219Z,-10.00
2018-03-02T06:47:55.736Z,-10.10
2018-03-02T06:50:23.244Z,-10.10
2018-03-02T06:52:50.754Z,-10.10
2018-03-02T06:55:18.286Z,-10.00
2018-03-02T06:57:45.802Z,-10.00
2018-03-02T07:00:13.298Z,-9.90
2018-03-02T07:02:41.195Z,-9.70
2018-03-02T07:05:08.691Z,-9.70
2018-03-02T07:07:36.182Z,-9.50
2018-03-02T07:10:03.704Z,-9.40
2018-03-02T07:12:31.191Z,-9.20
2018-03-02T07:14:59.090Z,-8.90
2018-03-02T07:17:26.630Z,-8.90
2018-03-02T07:19:54.123Z,-8.90
2018-03-02T07:22:21.622Z,-8.70
2018-03-02T07:24:49.521Z,-8.40
2018-03-02T07:27:17.019Z,-8.40
2018-03-02T07:29:44.538Z,-8.30
2018-03-02T07:32:12.027Z,-8.10
2018-03-02T07:34:39.520Z,-8.00
2018-03-02T07:37:07.059Z,-7.80
2018-03-02T07:39:34.555Z,-7.60
2018-03-02T07:42:02.098Z,-7.40
2018-03-02T07:44:29.996Z,-7.30
2018-03-02T07:46:57.521Z,-7.20
2018-03-02T07:49:25.511Z,-6.70
2018-03-02T07:51:53.020Z,-6.70
2018-03-02T07:54:20.941Z,-6.50
2018-03-02T07:56:48.430Z,-6.50
2018-03-02T07:59:15.935Z,-6.20
2018-03-02T08:01:43.465Z,-6.30
2018-03-02T08:04:10.986Z,-5.90
2018-03-02T08:06:38.483Z,-6.00
2018-03-02T08:09:05.982Z,-6.10
2018-03-02T08:11:33.491Z,-5.90
2018-03-02T08:14:00.984Z,-5.70
2018-03-02T08:16:28.503Z,-5.30
2018-03-02T08:18:56.000Z,-5.40
2018-03-02T08:21:23.494Z,-5.20
2018-03-02T08:23:50.997Z,-5.10
2018-03-02T08:26:18.879Z,-5.10
2018-03-02T08:28:46.390Z,-5.10
2018-03-02T08:31:13.895Z,-4.80
2018-03-02T08:33:41.406Z,-4.80
2018-03-02T08:36:08.924Z,-4.80
2018-03-02T08:38:36.420Z,-4.70
2018-03-02T08:41:03.930Z,-4.80
2018-03-02T08:43:31.422Z,-4.50
2018-03-02T08:45:58.944Z,-4.20
2018-03-02T08:48:26.455Z,-4.50
2018-03-02T08:50:53.960Z,-4.60
2018-03-02T08:53:21.467Z,-4.70
2018-03-02T08:55:48.995Z,-4.60
2018-03-02T08:58:16.535Z,-4.20
2018-03-02T09:00:44.023Z,-3.90
2018-03-02T09:03:11.508Z,-3.60
2018-03-02T09:05:39.112Z,-3.60
2018-03-02T09:08:06.700Z,-3.40
2018-03-02T09:10:34.268Z,-3.60
2018-03-02T09:13:02.243Z,-3.60
2018-03-02T09:15:29.736Z,-3.60
2018-03-02T09:17:57.230Z,-3.20
2018-03-02T09:20:24.737Z,-3.00
2018-03-02T09:22:52.702Z,-2.60
2018-03-02T09:25:20.597Z,-2.50
2018-03-02T09:27:48.133Z,-2.50
2018-03-02T09:30:16.079Z,-1.80
2018-03-02T09:32:43.588Z,-1.80
2018-03-02T09:35:11.096Z,-2.70
2018-03-02T09:37:38.597Z,-2.90
2018-03-02T09:40:06.096Z,-2.80
2018-03-02T09:42:33.615Z,-2.60
2018-03-02T09:45:01.136Z,-2.70
2018-03-02T09:47:29.010Z,-3.30
2018-03-02T09:49:56.907Z,-3.10
2018-03-02T09:52:24.407Z,-3.10
2018-03-02T09:54:51.905Z,-3.00
2018-03-02T09:57:19.406Z,-3.00
2018-03-02T09:59:46.928Z,-3.00
2018-03-02T10:02:14.437Z,-3.10
2018-03-02T10:04:41.961Z,-3.20
2018-03-02T10:07:09.463Z,-3.40
2018-03-02T10:09:36.947Z,-3.40
2018-03-02T10:12:04.447Z,-3.30
2018-03-02T10:14:31.939Z,-3.00
2018-03-02T10:16:59.832Z,-3.00
2018-03-02T10:19:27.405Z,-3.00
2018-03-02T10:21:54.898Z,-2.90
2018-03-02T10:24:22.487Z,-2.70
2018-03-02T10:26:50.399Z,-2.80
2018-03-02T10:29:17.899Z,-2.80
2018-03-02T10:31:45.396Z,-2.90
2018-03-02T10:34:12.895Z,-2.80
2018-03-02T10:36:40.383Z,-3.10
2018-03-02T10:39:08.277Z,-3.10
2018-03-02T10:41:35.821Z,-3.10
2018-03-02T10:44:03.271Z,-3.20
2018-03-02T10:46:31.205Z,-2.70
2018-03-02T10:48:58.703Z,-2.70
2018-03-02T10:51:26.210Z,-2.90
2018-03-02T10:53:53.698Z,-2.80
2018-03-02T10:56:21.599Z,-2.40
2018-03-02T10:58:49.123Z,-2.40
2018-03-02T11:01:22.281Z,-2.30
2018-03-02T11:03:49.795Z,-2.10
2018-03-02T11:06:17.290Z,-2.10
2018-03-02T11:08:44.786Z,-1.80
2018-03-02T11:11:12.671Z,-1.90
2018-03-02T11:13:40.191Z,-1.90
2018-03-02T11:16:07.711Z,-1.70
2018-03-02T11:18:35.212Z,-1.70
2018-03-02T11:21:02.715Z,-1.70
2018-03-02T11:23:30.247Z,-1.80
2018-03-02T11:25:57.751Z,-1.60
2018-03-02T11:28:25.239Z,-1.70
2018-03-02T11:30:52.763Z,-1.40
2018-03-02T11:33:20.246Z,-1.50
2018-03-02T11:35:47.736Z,-1.60
2018-03-02T11:38:15.626Z,-1.80
2018-03-02T11:40:43.159Z,-1.80
2018-03-02T11:43:11.039Z,-1.90
2018-03-02T11:45:38.538Z,-1.90
2018-03-02T11:48:06.043Z,-1.90
2018-03-02T11:50:33.543Z,-2.00
2018-03-02T11:53:01.044Z,-2.40
2018-03-02T11:55:28.923Z,-2.60
2018-03-02T11:57:56.484Z,-2.60
2018-03-02T12:00:23.996Z,-2.80
2018-03-02T12:02:51.499Z,-2.90
2018-03-02T12:05:19.016Z,-2.90
2018-03-02T12:07:46.530Z,-2.90
2018-03-02T12:10:14.028Z,-2.70
2018-03-02T12:12:41.528Z,-2.60
2018-03-02T12:15:09.043Z,-2.60
2018-03-02T12:17:36.601Z,-2.40
2018-03-02T12:20:04.101Z,-2.40
2018-03-02T12:22:31.672Z,-2.40
2018-03-02T12:24:59.142Z,-2.10
2018-03-02T12:27:26.899Z,-2.00
2018-03-02T12:29:54.411Z,-1.90
2018-03-02T12:32:21.899Z,-2.00
2018-03-02T12:34:49.384Z,-1.70
2018-03-02T12:37:16.878Z,-1.70
2018-03-02T12:39:45.519Z,-1.10
2018-03-02T12:42:13.026Z,-1.10
2018-03-02T12:44:40.902Z,-1.00
2018-03-02T12:47:08.883Z,-0.90
2018-03-02T12:49:36.372Z,-0.90
2018-03-02T12:52:03.891Z,-0.60
2018-03-02T12:54:31.451Z,-0.50
2018-03-02T12:56:58.896Z,-0.10
2018-03-02T12:59:26.399Z,-0.10
2018-03-02T13:01:53.883Z,0.30
2018-03-02T13:04:21.379Z,0.10
2018-03-02T13:06:48.867Z,0.40
2018-03-02T13:09:16.367Z,0.50
2018-03-02T13:11:43.847Z,1.00
2018-03-02T13:14:11.723Z,0.50
2018-03-02T13:16:39.224Z,0.50
2018-03-02T13:19:06.708Z,0.50
2018-03-02T13:21:34.663Z,1.30
2018-03-02T13:24:02.232Z,1.30
2018-03-02T13:26:41.748Z,1.80
2018-03-02T13:29:09.255Z,1.80
2018-03-02T13:31:36.803Z,1.80
2018-03-02T13:34:16.107Z,1.20
2018-03-02T13:36:43.647Z,1.20
2018-03-02T13:39:11.154Z,1.30
2018-03-02T13:41:50.843Z,1.60
2018-03-02T13:44:18.339Z,1.60
2018-03-02T13:46:46.235Z,1.80
2018-03-02T13:49:25.790Z,1.80
2018-03-02T13:51:53.300Z,2.20
2018-03-02T13:54:21.216Z,2.60
2018-03-02T13:57:00.663Z,2.60
2018-03-02T13:59:28.153Z,2.90
2018-03-02T14:01:55.663Z,3.40
2018-03-02T14:04:35.040Z,2.60
2018-03-02T14:07:02.580Z,2.70
2018-03-02T14:09:30.070Z,2.20
2018-03-02T14:11:58.414Z,2.20
2018-03-02T14:14:25.915Z,2.50
2018-03-02T14:16:53.807Z,2.70
2018-03-02T14:19:21.364Z,2.70
2018-03-02T14:21:48.852Z,3.00
2018-03-02T14:24:16.380Z,3.10
2018-03-02T14:26:43.869Z,2.80
2018-03-02T14:29:11.380Z,2.40
2018-03-02T14:31:39.709Z,2.20
2018-03-02T14:34:07.275Z,2.10
2018-03-02T14:36:34.768Z,2.00
2018-03-02T14:39:02.657Z,2.10
2018-03-02T14:41:30.151Z,2.10
2018-03-02T14:43:57.643Z,1.90
2018-03-02T14:46:25.539Z,2.20
2018-03-02T14:48:53.051Z,2.20
2018-03-02T14:51:20.536Z,2.20
2018-03-02T14:53:48.028Z,2.20
2018-03-02T14:56:15.537Z,2.10
2018-03-02T14:58:43.415Z,1.50
2018-03-02T15:01:10.931Z,1.50
2018-03-02T15:03:38.422Z,1.40
2018-03-02T15:06:06.338Z,0.90
2018-03-02T15:08:33.851Z,0.90
2018-03-02T15:11:01.348Z,1.10
2018-03-02T15:13:28.835Z,1.00
2018-03-02T15:15:56.335Z,0.90
2018-03-02T15:18:23.839Z,0.90
2018-03-02T15:20:51.346Z,0.70
2018-03-02T15:23:18.939Z,0.70
2018-03-02T15:25:46.449Z,0.70
2018-03-02T15:28:14.422Z,1.00
2018-03-02T15:30:41.935Z,1.00
2018-03-02T15:33:09.428Z,0.70
2018-03-02T15:35:37.327Z,0.90
2018-03-02T15:38:04.823Z,0.90
2018-03-02T15:40:32.315Z,0.50
2018-03-02T15:42:59.859Z,0.40
2018-03-02T15:45:28.207Z,-0.20
2018-03-02T15:47:55.691Z,-0.20
2018-03-02T15:50:23.191Z,-0.60
2018-03-02T15:52:50.680Z,-1.00
2018-03-02T15:55:18.165Z,-1.30
2018-03-02T15:57:46.055Z,-1.70
2018-03-02T16:00:13.549Z,-1.70
2018-03-02T16:02:41.112Z,-1.80
2018-03-02T16:05:08.645Z,-2.00
2018-03-02T16:07:36.201Z,-2.10
2018-03-02T16:10:03.760Z,-2.30
2018-03-02T16:12:31.320Z,-2.40
2018-03-02T16:14:58.831Z,-2.40
2018-03-02T16:17:27.256Z,-2.50
2018-03-02T16:19:54.795Z,-2.50
2018-03-02T16:22:22.333Z,-2.60
2018-03-02T16:24:50.230Z,-2.70
2018-03-02T16:27:17.720Z,-2.70
2018-03-02T16:29:45.247Z,-2.80
2018-03-02T16:32:12.734Z,-2.80
2018-03-02T16:34:40.275Z,-2.90
2018-03-02T16:37:07.765Z,-2.90
2018-03-02T16:39:35.254Z,-3.00
2018-03-02T16:42:04.322Z,-3.10
2018-03-02T16:44:32.747Z,-3.20
2018-03-02T16:47:00.523Z,-3.20
2018-03-02T16:49:28.015Z,-3.30
2018-03-02T16:51:55.532Z,-3.30
2018-03-02T16:54:23.079Z,-3.40
2018-03-02T16:56:50.699Z,-3.40
2018-03-02T16:59:18.590Z,-3.60
2018-03-02T17:01:46.468Z,-3.60
2018-03-02T17:04:13.987Z,-3.60
2018-03-02T17:06:41.492Z,-3.60
2018-03-02T17:09:09.264Z,-3.60
2018-03-02T17:11:36.783Z,-3.70
2018-03-02T17:14:04.315Z,-3.70
2018-03-02T17:16:32.492Z,-3.80
2018-03-02T17:19:00.039Z,-3.80
2018-03-02T17:21:27.558Z,-3.80
2018-03-02T17:23:55.077Z,-3.80
2018-03-02T17:26:22.569Z,-3.90
2018-03-02T17:28:50.599Z,-3.90
2018-03-02T17:31:18.088Z,-3.90
2018-03-02T17:33:45.603Z,-4.00
2018-03-02T17:36:13.095Z,-4.00
2018-03-02T17:38:41.186Z,-4.00
2018-03-02T17:41:08.915Z,-4.00
2018-03-02T17:43:36.495Z,-4.10
2018-03-02T17:46:04.047Z,-4.10
2018-03-02T17:48:31.567Z,-4.10
2018-03-02T17:50:59.070Z,-4.10
2018-03-02T17:53:26.559Z,-4.10
2018-03-02T17:55:54.091Z,-4.10
2018-03-02T17:58:22.011Z,-4.10
2018-03-02T18:00:50.153Z,-4.10
2018-03-02T18:03:18.367Z,-4.10
2018-03-02T18:05:45.878Z,-4.10
2018-03-02T18:08:14.062Z,-4.10
2018-03-02T18:10:41.582Z,-4.20
2018-03-02T18:13:09.893Z,-4.20
2018-03-02T18:15:37.469Z,-4.20
2018-03-02T18:18:05.009Z,-4.20
2018-03-02T18:20:32.534Z,-4.30
2018-03-02T18:23:00.434Z,-4.40
2018-03-02T18:25:27.938Z,-4.40
2018-03-02T18:27:55.841Z,-4.40
2018-03-02T18:30:23.331Z,-4.40
2018-03-02T18:32:50.820Z,-4.40
2018-03-02T18:35:18.812Z,-4.50
2018-03-02T18:37:46.415Z,-4.50
2018-03-02T18:40:14.065Z,-4.50
2018-03-02T18:42:41.597Z,-4.50
2018-03-02T18:45:09.262Z,-4.50
2018-03-02T18:47:36.775Z,-4.50
2018-03-02T18:50:04.375Z,-4.60
2018-03-02T18:52:31.866Z,-4.50
2018-03-02T18:54:59.376Z,-4.50
2018-03-02T18:57:26.871Z,-4.50
2018-03-02T18:59:54.370Z,-4.60
2018-03-02T19:02:21.872Z,-4.60
2018-03-02T19:04:49.391Z,-4.60
2018-03-02T19:07:17.399Z,-4.60
2018-03-02T19:09:44.919Z,-4.60
2018-03-02T19:12:12.806Z,-4.60
2018-03-02T19:14:40.325Z,-4.60
2018-03-02T19:17:07.835Z,-4.60
2018-03-02T19:19:35.334Z,-4.60
2018-03-02T19:22:02.855Z,-4.70
2018-03-02T19:24:30.355Z,-4.70
2018-03-02T19:26:57.924Z,-4.70
2018-03-02T19:29:25.927Z,-4.70
2018-03-02T19:31:53.532Z,-4.70
2018-03-02T19:34:21.179Z,-4.70
2018-03-02T19:36:48.834Z,-4.70
2018-03-02T19:39:16.454Z,-4.70
2018-03-02T19:41:44.100Z,-4.80
2018-03-02T19:44:11.679Z,-4.80
2018-03-02T19:46:39.349Z,-4.70
2018-03-02T19:49:06.931Z,-4.70
2018-03-02T19:51:34.489Z,-4.70
2018-03-02T19:54:02.139Z,-4.70
2018-03-02T19:56:29.733Z,-4.80
2018-03-02T19:58:57.318Z,-4.80
2018-03-02T20:01:24.912Z,-4.90
2018-03-02T20:03:52.511Z,-4.90
2018-03-02T20:06:19.989Z,-4.90
2018-03-02T20:08:47.988Z,-4.90
2018-03-02T20:11:15.581Z,-4.90
2018-03-02T20:13:43.150Z,-4.90
2018-03-02T20:16:10.699Z,-4.90
2018-03-02T20:18:38.304Z,-5.00
2018-03-02T20:21:06.222Z,-5.00
2018-03-02T20:23:33.875Z,-5.00
2018-03-02T20:26:01.400Z,-5.00
2018-03-02T20:28:28.891Z,-5.00
2018-03-02T20:30:56.378Z,-5.10
2018-03-02T20:33:23.894Z,-5.10
2018-03-02T20:35:51.399Z,-5.10
2018-03-02T20:38:18.911Z,-5.10
2018-03-02T20:40:46.419Z,-5.10
2018-03-02T20:43:13.988Z,-5.20
2018-03-02T20:45:41.872Z,-5.20
2018-03-02T20:48:09.374Z,-5.20
2018-03-02T20:50:36.869Z,-5.20
2018-03-02T20:53:04.779Z,-5.30
2018-03-02T20:55:32.287Z,-5.30
2018-03-02T20:57:59.787Z,-5.30
2018-03-02T21:00:27.286Z,-5.40
2018-03-02T21:02:55.652Z,-5.30
2018-03-02T21:05:23.195Z,-5.30
2018-03-02T21:07:50.685Z,-5.30
2018-03-02T21:10:18.185Z,-5.40
2018-03-02T21:12:45.692Z,-5.40
2018-03-02T21:15:13.222Z,-5.40
2018-03-02T21:17:41.366Z,-5.40
2018-03-02T21:20:08.909Z,-5.40
2018-03-02T21:22:36.875Z,-5.50
2018-03-02T21:25:04.766Z,-5.50
2018-03-02T21:27:32.252Z,-5.50
2018-03-02T21:29:59.767Z,-5.50
2018-03-02T21:32:27.251Z,-5.60
2018-03-02T21:34:54.760Z,-5.60
2018-03-02T21:37:22.638Z,-5.70
2018-03-02T21:39:50.906Z,-5.70
2018-03-02T21:42:19.119Z,-5.70
2018-03-02T21:44:46.679Z,-5.70
2018-03-02T21:47:14.174Z,-5.70
2018-03-02T21:49:41.683Z,-5.70
2018-03-02T21:52:09.199Z,-5.80
2018-03-02T21:54:36.705Z,-5.80
2018-03-02T21:57:04.202Z,-5.80
2018-03-02T21:59:31.980Z,-5.90
2018-03-02T22:01:59.898Z,-5.90
2018-03-02T22:04:27.383Z,-5.90
2018-03-02T22:06:54.874Z,-5.90
2018-03-02T22:09:22.370Z,-6.00
2018-03-02T22:11:49.854Z,-6.10
2018-03-02T22:14:17.401Z,-6.00
2018-03-02T22:16:44.902Z,-6.10
2018-03-02T22:19:12.500Z,-6.10
2018-03-02T22:21:39.986Z,-6.10
2018-03-02T22:24:07.495Z,-6.10
2018-03-02T22:26:35.458Z,-6.10
2018-03-02T22:29:02.968Z,-6.10
2018-03-02T22:31:30.471Z,-6.20
2018-03-02T22:33:57.980Z,-6.20
2018-03-02T22:36:25.471Z,-6.20
2018-03-02T22:38:53.351Z,-6.40
2018-03-02T22:41:20.867Z,-6.40
2018-03-02T22:43:48.356Z,-6.40
2018-03-02T22:46:16.251Z,-6.40
2018-03-02T22:48:43.762Z,-6.30
2018-03-02T22:51:11.260Z,-6.40
2018-03-02T22:53:38.762Z,-6.40
2018-03-02T22:56:06.271Z,-6.40
2018-03-02T22:58:33.762Z,-6.40
2018-03-02T23:01:01.254Z,-6.50
2018-03-02T23:03:29.171Z,-6.50
2018-03-02T23:05:56.663Z,-6.50
2018-03-02T23:08:24.163Z,-6.40
2018-03-02T23:10:51.669Z,-6.50
2018-03-02T23:13:19.158Z,-6.50
2018-03-02T23:15:47.088Z,-6.50
2018-03-02T23:18:14.575Z,-6.50
2018-03-02T23:20:42.460Z,-6.50
2018-03-02T23:23:09.976Z,-6.50
2018-03-02T23:25:37.477Z,-6.50
2018-03-02T23:28:04.991Z,-6.50
2018-03-02T23:30:32.478Z,-6.60
2018-03-02T23:32:59.969Z,-6.60
2018-03-02T23:35:27.465Z,-6.60
2018-03-02T23:37:54.964Z,-6.60
2018-03-02T23:40:22.478Z,-6.60
2018-03-02T23:42:49.975Z,-6.60
2018-03-02T23:45:17.506Z,-6.60
2018-03-02T23:47:44.978Z,-6.60
2018-03-02T23:50:12.862Z,-6.60
2018-03-02T23:52:40.359Z,-6.60
2018-03-02T23:55:07.858Z,-6.60
2018-03-02T23:57:35.754Z,-6.70
